createdAt,value
2023-05-24T00:08:36.365Z,271.20
2023-05-24T00:12:54.816Z,356.30
2023-05-24T00:17:24.158Z,673.30
2023-05-24T00:34:36.962Z,317.80
2023-05-24T00:38:54.832Z,386.00
2023-05-24T00:43:17.014Z,417.80
2023-05-24T00:47:35.030Z,407.30
2023-05-24T01:09:09.506Z,388.30
2023-05-24T01:13:54.008Z,481.30
2023-05-24T01:18:33.777Z,601.30
2023-05-24T01:44:48.764Z,846.00
2023-05-24T01:49:41.056Z,728.90
2023-05-24T01:54:13.651Z,669.00
2023-05-24T02:15:44.283Z,902.20
2023-05-24T02:20:14.670Z,812.90
2023-05-24T02:41:55.006Z,936.80
2023-05-24T02:46:26.243Z,855.40
2023-05-24T02:50:44.376Z,829.10
2023-05-24T03:16:31.723Z,950.10
2023-05-24T03:20:49.654Z,874.00
2023-05-24T03:54:48.012Z,962.20
2023-05-24T03:59:10.716Z,909.20
2023-05-24T04:03:40.422Z,895.50
2023-05-24T04:26:33.555Z,989.60
2023-05-24T04:31:01.555Z,928.60
2023-05-24T05:01:30.710Z,944.90
2023-05-24T05:06:00.160Z,862.30
2023-05-24T05:19:39.745Z,977.10
2023-05-24T05:23:43.465Z,896.40
2023-05-24T05:49:24.882Z,960.00
2023-05-24T05:53:42.936Z,911.10
2023-05-24T05:57:57.036Z,905.50
2023-05-24T06:02:16.835Z,893.10
2023-05-24T06:06:16.485Z,897.50
2023-05-24T06:10:34.735Z,871.10
2023-05-24T06:14:56.975Z,896.00
2023-05-24T06:18:43.197Z,882.90
2023-05-24T06:22:47.375Z,862.00
2023-05-24T06:30:59.946Z,985.90
2023-05-24T06:34:48.496Z,971.10
2023-05-24T06:38:53.192Z,932.10
2023-05-24T06:42:51.144Z,943.50
2023-05-24T06:47:09.693Z,962.60
2023-05-24T06:51:40.712Z,938.00
2023-05-24T07:08:17.617Z,1000.00
2023-05-24T07:12:27.278Z,959.80
2023-05-24T07:16:11.563Z,941.00
2023-05-24T07:20:34.048Z,937.30
2023-05-24T07:24:53.898Z,935.00
2023-05-24T07:32:04.251Z,901.30
2023-05-24T07:36:15.632Z,916.20
2023-05-24T07:40:45.684Z,934.10
2023-05-24T07:44:41.070Z,924.60
2023-05-24T07:48:36.362Z,922.00
2023-05-24T07:52:56.753Z,914.20
2023-05-24T07:57:09.399Z,904.50
2023-05-24T08:00:50.849Z,920.00
2023-05-24T08:59:04.932Z,968.40
2023-05-24T09:03:15.544Z,908.50
2023-05-24T09:07:40.035Z,898.60
2023-05-24T09:12:00.322Z,880.60
2023-05-24T09:16:00.562Z,885.40
2023-05-24T09:36:30.178Z,926.10
2023-05-24T09:40:59.543Z,841.00
2023-05-24T09:45:24.597Z,798.00
2023-05-24T09:49:10.083Z,799.20
2023-05-24T09:52:59.846Z,798.40
2023-05-24T09:56:48.593Z,791.50
2023-05-24T10:17:02.908Z,704.20
2023-05-24T10:20:42.025Z,779.80
2023-05-24T10:24:14.146Z,775.00
2023-05-24T10:27:54.236Z,765.30
2023-05-24T10:31:52.449Z,197.70
2023-05-24T10:35:37.821Z,742.70
2023-05-24T10:39:06.969Z,786.20
2023-05-24T10:42:46.333Z,771.50
2023-05-24T10:46:23.253Z,791.70
2023-05-24T10:49:55.465Z,819.50
2023-05-24T10:54:08.281Z,821.30
2023-05-24T10:58:28.954Z,801.20
2023-05-24T11:02:59.354Z,820.30
2023-05-24T11:07:27.904Z,846.80
2023-05-24T11:11:56.853Z,809.10
2023-05-24T11:20:02.254Z,826.90
2023-05-24T11:23:38.166Z,836.60
2023-05-24T11:27:46.196Z,891.70
2023-05-24T11:31:36.730Z,887.60
2023-05-24T11:35:58.554Z,893.30
2023-05-24T11:40:10.251Z,903.70
2023-05-24T11:44:29.668Z,904.60
2023-05-24T11:48:27.506Z,891.90
2023-05-24T11:59:23.282Z,135.20
2023-05-24T12:02:54.613Z,942.80
2023-05-24T12:07:05.362Z,923.10
2023-05-24T12:11:24.963Z,888.60
2023-05-24T12:19:20.103Z,833.20
2023-05-24T12:23:35.599Z,878.00
2023-05-24T12:27:33.224Z,886.60
2023-05-24T12:31:45.746Z,912.80
2023-05-24T12:36:05.801Z,900.00
2023-05-24T12:39:51.246Z,870.30
2023-05-24T12:43:59.712Z,878.40
2023-05-24T12:48:22.181Z,900.60
2023-05-24T12:51:59.290Z,905.50
2023-05-24T12:56:02.849Z,894.40
2023-05-24T12:59:57.326Z,906.10
2023-05-24T13:27:55.887Z,979.70
2023-05-24T13:31:33.373Z,925.30
2023-05-24T13:36:02.646Z,902.60
2023-05-24T13:40:32.262Z,858.60
2023-05-24T13:44:57.785Z,74.90
2023-05-24T13:49:26.333Z,845.60
2023-05-24T13:53:55.669Z,803.90
2023-05-24T13:58:14.020Z,811.90
2023-05-24T14:23:41.700Z,176.50
2023-05-24T14:32:20.003Z,643.30
2023-05-24T14:49:30.343Z,232.90
2023-05-24T14:53:59.835Z,203.20
2023-05-24T14:58:01.869Z,711.30
2023-05-24T15:39:52.941Z,676.50
2023-05-24T15:44:22.298Z,618.00
2023-05-24T15:48:52.219Z,581.40
2023-05-24T16:09:44.146Z,691.30
2023-05-24T16:14:06.620Z,631.90
2023-05-24T16:18:28.876Z,635.70
2023-05-24T16:22:37.259Z,657.00
2023-05-24T16:26:55.608Z,659.60
2023-05-24T16:31:13.688Z,647.70
2023-05-24T16:48:22.070Z,768.10
2023-05-24T16:52:52.115Z,695.90
2023-05-24T16:57:21.948Z,690.90
2023-05-24T17:01:33.643Z,674.80
2023-05-24T17:23:03.422Z,762.70
2023-05-24T17:27:22.545Z,690.20
2023-05-24T17:48:39.410Z,789.90
2023-05-24T17:52:57.611Z,687.50
2023-05-24T17:57:29.992Z,710.90
2023-05-24T18:05:16.297Z,806.40
2023-05-24T18:09:47.072Z,804.50
2023-05-24T18:13:47.606Z,823.80
2023-05-24T18:44:19.236Z,996.90
2023-05-24T18:48:31.653Z,978.30
2023-05-24T18:52:50.121Z,983.10
2023-05-24T19:18:42.784Z,1066.50
2023-05-24T19:23:15.925Z,1040.50
2023-05-24T19:27:37.897Z,1039.10
2023-05-24T19:31:52.144Z,1018.00
2023-05-24T19:36:21.679Z,1031.60
2023-05-24T19:40:39.756Z,1022.80
2023-05-24T20:02:08.477Z,1047.10
2023-05-24T20:06:38.126Z,1020.30
2023-05-24T20:39:57.406Z,1062.50
2023-05-24T20:43:47.483Z,1044.30
2023-05-24T20:47:19.416Z,1042.20
2023-05-24T20:51:44.929Z,1047.00
2023-05-24T20:56:04.186Z,1031.70
2023-05-24T21:17:45.283Z,1081.00
2023-05-24T21:22:14.918Z,1065.10
2023-05-24T21:26:45.162Z,1055.40
2023-05-24T21:48:33.191Z,1075.70
2023-05-24T21:53:02.425Z,1065.30
2023-05-24T22:19:10.417Z,1077.80
2023-05-24T22:23:39.676Z,1068.60
2023-05-24T22:28:11.551Z,1063.50
2023-05-24T22:43:22.378Z,1059.20
2023-05-24T22:47:52.597Z,1073.90
2023-05-24T23:24:09.441Z,1005.60
2023-05-24T23:28:38.668Z,1017.20
2023-05-24T23:33:07.994Z,1013.10
2023-05-24T23:42:08.023Z,951.20
2023-05-24T23:46:36.287Z,981.40
2023-05-24T23:51:06.835Z,975.50
